You are not logged in, Click here to log in
ICAO: RORS Country: 沖繩縣宮古島市下地島
Latitude: 24.8267 Longitude: 125.145
Total Arrivals: 10 Total Departures: 9
Latest Arrival: FS11 (RCTP-RORS)CHU. CHUHAO Latest Departure: FS12 (RORS-RCTP)CHU. CHUHAO
Scenery:
METAR : RORS 241000Z 11009KT 9999 FEW037 25/15 Q1014

下地島機場SHI